Longshot, Mississippi
Current Conditions -  °F | °C
As of 2:53 PM on Thursday 18 Dec 2014 (Local Time) from KGLH Reporting Station
Overcast Overcast  
Wind Chill: 51°   Ceiling: 3400
Heat Index: 51°   Visibility: 8mi
Dew Point: 44°   Wind: 5mph
Humidity: 77%   Direction: 120°ESE
Pressure: 30.15"   Gusts: NA
Location:  33.6504°N, 91.0785°W
Report Text: KGLH 182053Z AUTO 12004KT 8SM OVC034 11/07 A3015 RMK AO2 SLP217 T01060067 56015
Loading
Personal Weather Stations






























Interactive Weather Map New forecast layout! Learn more

10-Day Weather Forecast

Advertisements
Track Severe Weather on mobile